Terminal Aerodrome Forecast
Issued by NWS

Home | Current Version | Previous Version | Text Only | Print | Product List | Glossary On
Versions: 1 2 3 4 5 6 7 8 9 10 11 12 13 14 15 16 17 18 19 20 21 22 23 24 25 26 27 28 29 30 31 32 33
000
FTUS45 KPSR 040420 AAC
TAFPHX
TAF AMD
KPHX 040420Z 0404/0424 VRB05KT P6SM VCTS FEW100CB BKN150 OVC250
     FM040445 01015G25KT P6SM VCTS SCT100CB OVC150
      TEMPO 0405/0408 VRB15G25KT 6SM TSRA BKN070CB
     FM040800 09006KT P6SM SCT150 OVC200
     FM041700 VRB05KT P6SM SCT100 BKN250=

USA.gov is the U.S. government's official web portal to all federal, state and local government web resources and services.